createdAt,value
2023-04-28T00:02:36.068Z,8.76
2023-04-28T00:07:58.385Z,8.75
2023-04-28T00:13:21.484Z,8.66
2023-04-28T00:18:44.310Z,8.61
2023-04-28T00:24:06.826Z,8.63
2023-04-28T00:29:30.142Z,8.66
2023-04-28T00:34:52.443Z,8.64
2023-04-28T00:40:15.170Z,8.66
2023-04-28T00:45:38.510Z,8.58
2023-04-28T00:51:00.370Z,8.60
2023-04-28T00:56:22.843Z,8.55
2023-04-28T01:01:45.359Z,8.50
2023-04-28T01:07:07.767Z,8.55
2023-04-28T01:12:31.253Z,8.51
2023-04-28T01:17:54.479Z,8.52
2023-04-28T01:23:18.282Z,8.49
2023-04-28T01:28:40.606Z,8.52
2023-04-28T01:34:03.279Z,8.42
2023-04-28T01:39:25.948Z,8.37
2023-04-28T01:44:48.309Z,8.32
2023-04-28T01:50:12.131Z,8.26
2023-04-28T01:55:34.568Z,8.22
2023-04-28T02:00:57.826Z,8.20
2023-04-28T02:06:20.871Z,8.16
2023-04-28T02:11:43.206Z,8.25
2023-04-28T02:17:06.305Z,8.16
2023-04-28T02:22:29.824Z,8.23
2023-04-28T02:27:52.333Z,8.22
2023-04-28T02:33:15.570Z,8.30
2023-04-28T02:38:38.220Z,8.37
2023-04-28T02:44:01.646Z,8.41
2023-04-28T02:49:24.042Z,8.53
2023-04-28T03:00:31.307Z,8.52
2023-04-28T03:05:55.123Z,8.55
2023-04-28T03:11:18.275Z,8.69
2023-04-28T03:16:43.612Z,8.78
2023-04-28T03:22:06.502Z,8.89
2023-04-28T03:27:30.482Z,9.13
2023-04-28T03:32:54.667Z,9.52
2023-04-28T03:38:18.441Z,9.91
2023-04-28T03:43:42.758Z,10.30
2023-04-28T03:49:26.053Z,10.53
2023-04-28T03:54:48.781Z,10.71
2023-04-28T04:00:12.536Z,10.87
2023-04-28T04:05:38.342Z,11.01
2023-04-28T04:11:01.966Z,11.18
2023-04-28T04:16:26.100Z,11.38
2023-04-28T04:21:51.572Z,11.65
2023-04-28T04:27:15.050Z,12.15
2023-04-28T04:32:38.219Z,12.51
2023-04-28T04:38:02.078Z,13.25
2023-04-28T04:43:26.175Z,13.34
2023-04-28T04:48:48.676Z,13.63
2023-04-28T04:54:12.002Z,14.26
2023-04-28T04:59:37.795Z,14.75
2023-04-28T05:05:19.899Z,15.37
2023-04-28T05:10:56.530Z,16.04
2023-04-28T05:16:21.183Z,16.56
2023-04-28T05:22:09.371Z,17.16
2023-04-28T05:27:33.675Z,17.42
2023-04-28T05:32:56.898Z,17.66
2023-04-28T05:38:21.565Z,17.85
2023-04-28T05:43:48.383Z,18.21
2023-04-28T05:49:12.317Z,18.18
2023-04-28T05:54:36.262Z,18.19
2023-04-28T05:59:59.891Z,18.60
2023-04-28T06:05:23.148Z,18.89
2023-04-28T06:10:48.405Z,19.37
2023-04-28T06:16:11.928Z,19.64
2023-04-28T06:21:35.260Z,19.62
2023-04-28T06:26:58.746Z,19.30
2023-04-28T06:32:22.802Z,19.48
2023-04-28T06:37:45.858Z,19.67
2023-04-28T06:43:10.007Z,19.91
2023-04-28T06:48:49.221Z,20.23
2023-04-28T06:54:12.993Z,20.19
2023-04-28T06:59:39.097Z,20.04
2023-04-28T07:05:02.983Z,19.83
2023-04-28T07:10:26.133Z,19.77
2023-04-28T07:15:50.723Z,19.90
2023-04-28T07:21:14.169Z,19.68
2023-04-28T07:26:36.534Z,19.77
2023-04-28T07:31:58.535Z,20.32
2023-04-28T07:37:20.732Z,20.57
2023-04-28T07:42:42.594Z,20.37
2023-04-28T07:48:04.664Z,20.04
2023-04-28T07:53:27.128Z,19.64
2023-04-28T07:58:53.483Z,19.38
2023-04-28T08:04:15.929Z,19.48
2023-04-28T08:09:41.033Z,19.39
2023-04-28T08:15:04.519Z,19.59
2023-04-28T08:20:27.107Z,19.58
2023-04-28T08:25:50.889Z,19.86
2023-04-28T08:31:13.565Z,20.31
2023-04-28T08:36:35.948Z,20.38
2023-04-28T08:41:58.512Z,20.58
2023-04-28T08:47:23.093Z,20.51
2023-04-28T08:52:45.459Z,20.51
2023-04-28T08:58:09.265Z,20.10
2023-04-28T09:03:33.221Z,20.25
2023-04-28T09:08:55.225Z,20.33
2023-04-28T09:14:17.374Z,20.31
2023-04-28T09:19:43.487Z,20.16
2023-04-28T09:25:12.852Z,20.14
2023-04-28T09:30:41.576Z,20.02
2023-04-28T09:36:04.127Z,20.23
2023-04-28T09:41:54.442Z,20.34
2023-04-28T09:47:23.042Z,20.44
2023-04-28T09:52:49.534Z,20.54
2023-04-28T09:58:13.821Z,20.81
2023-04-28T10:03:36.527Z,20.99
2023-04-28T10:09:00.915Z,21.29
2023-04-28T10:14:23.908Z,21.16
2023-04-28T10:19:47.830Z,20.78
2023-04-28T10:25:25.902Z,20.49
2023-04-28T10:31:12.471Z,20.46
2023-04-28T10:36:55.663Z,20.47
2023-04-28T10:42:57.742Z,20.26
2023-04-28T10:48:21.403Z,19.98
2023-04-28T10:53:44.218Z,19.66
2023-04-28T10:59:27.885Z,19.52
2023-04-28T11:05:12.838Z,19.51
2023-04-28T11:11:14.987Z,19.83
2023-04-28T11:16:52.943Z,20.21
2023-04-28T11:22:21.088Z,20.42
2023-04-28T11:27:43.469Z,20.45
2023-04-28T11:33:05.741Z,20.30
2023-04-28T11:38:27.636Z,19.95
2023-04-28T11:43:49.782Z,19.57
2023-04-28T11:49:13.130Z,19.47
2023-04-28T11:54:36.053Z,19.51
2023-04-28T12:00:22.580Z,19.37
2023-04-28T12:05:48.738Z,19.48
2023-04-28T12:11:13.328Z,19.78
2023-04-28T12:16:44.727Z,20.20
2023-04-28T12:22:08.068Z,20.42
2023-04-28T12:27:29.861Z,20.11
2023-04-28T12:32:52.712Z,19.78
2023-04-28T12:38:18.037Z,19.53
2023-04-28T12:43:46.438Z,19.46
2023-04-28T12:49:11.772Z,19.52
2023-04-28T12:54:39.704Z,19.72
2023-04-28T13:00:02.534Z,19.88
2023-04-28T13:05:29.421Z,19.86
2023-04-28T13:10:53.513Z,19.85
2023-04-28T13:16:15.644Z,19.82
2023-04-28T13:21:39.753Z,19.71
2023-04-28T13:27:10.360Z,19.77
2023-04-28T13:32:32.688Z,19.71
2023-04-28T13:38:02.157Z,19.32
2023-04-28T13:43:25.163Z,19.33
2023-04-28T13:48:48.635Z,19.24
2023-04-28T13:54:12.039Z,19.22
2023-04-28T13:59:36.064Z,19.33
2023-04-28T14:05:00.013Z,19.41
2023-04-28T14:10:26.085Z,19.43
2023-04-28T14:15:58.491Z,19.52
2023-04-28T14:21:25.836Z,19.38
2023-04-28T14:26:53.603Z,19.23
2023-04-28T14:32:21.806Z,19.21
2023-04-28T14:37:49.086Z,19.03
2023-04-28T14:43:14.485Z,19.05
2023-04-28T14:48:39.200Z,18.49
2023-04-28T14:54:02.202Z,18.10
2023-04-28T14:59:25.357Z,17.75
2023-04-28T15:04:52.589Z,17.81
2023-04-28T15:10:15.808Z,17.63
2023-04-28T15:15:38.286Z,17.47
2023-04-28T15:21:02.166Z,17.43
2023-04-28T15:26:24.560Z,17.47
2023-04-28T15:31:51.620Z,17.27
2023-04-28T15:37:37.745Z,17.30
2023-04-28T15:43:00.477Z,17.22
2023-04-28T15:48:23.978Z,17.00
2023-04-28T15:53:46.448Z,16.96
2023-04-28T15:59:09.228Z,16.90
2023-04-28T16:04:32.269Z,16.93
2023-04-28T16:09:55.948Z,16.85
2023-04-28T16:15:18.935Z,16.72
2023-04-28T16:20:41.769Z,16.74
2023-04-28T16:26:04.070Z,16.66
2023-04-28T16:31:26.859Z,16.64
2023-04-28T16:36:49.792Z,16.61
2023-04-28T16:42:12.322Z,16.57
2023-04-28T16:47:35.904Z,16.43
2023-04-28T16:52:58.771Z,16.25
2023-04-28T16:58:21.063Z,16.11
2023-04-28T17:03:44.012Z,15.85
2023-04-28T17:30:43.783Z,15.44
2023-04-28T17:37:03.103Z,15.43
2023-04-28T17:42:41.691Z,15.32
2023-04-28T17:48:21.943Z,15.28
2023-04-28T17:53:55.356Z,15.10
2023-04-28T17:59:30.284Z,15.06
2023-04-28T18:05:17.207Z,15.12
2023-04-28T18:10:52.186Z,15.17
2023-04-28T18:16:32.692Z,15.07
2023-04-28T18:22:26.864Z,14.98
2023-04-28T18:28:21.539Z,14.75
2023-04-28T18:34:15.496Z,14.63
2023-04-28T18:39:55.376Z,14.45
2023-04-28T18:51:04.217Z,14.19
2023-04-28T18:56:26.761Z,14.11
2023-04-28T19:01:58.545Z,14.05
2023-04-28T19:07:27.786Z,13.96
2023-04-28T19:12:50.002Z,14.04
2023-04-28T19:18:13.042Z,13.96
2023-04-28T19:23:35.325Z,13.79
2023-04-28T19:29:01.638Z,13.93
2023-04-28T19:34:23.800Z,13.81
2023-04-28T19:39:47.325Z,13.69
2023-04-28T19:45:10.559Z,13.66
2023-04-28T19:50:32.753Z,13.75
2023-04-28T19:55:55.168Z,13.66
2023-04-28T20:01:17.206Z,13.62
2023-04-28T20:06:39.344Z,13.51
2023-04-28T20:12:04.876Z,13.45
2023-04-28T20:17:27.309Z,13.50
2023-04-28T20:22:52.748Z,13.52
2023-04-28T20:28:14.859Z,13.46
2023-04-28T20:33:37.168Z,13.49
2023-04-28T20:39:02.223Z,13.45
2023-04-28T20:44:24.594Z,13.50
2023-04-28T20:49:48.068Z,13.43
2023-04-28T20:55:12.165Z,13.35
2023-04-28T21:00:36.545Z,13.41
2023-04-28T21:06:01.218Z,13.39
2023-04-28T21:11:23.092Z,13.33
2023-04-28T21:16:45.105Z,13.26
2023-04-28T21:22:07.525Z,13.34
2023-04-28T21:27:29.842Z,13.23
2023-04-28T21:32:51.827Z,13.37
2023-04-28T21:39:05.650Z,13.35
2023-04-28T21:44:28.087Z,13.28
2023-04-28T21:49:50.576Z,13.23
2023-04-28T21:55:13.113Z,13.19
2023-04-28T22:00:40.072Z,13.26
2023-04-28T22:06:02.880Z,13.36
2023-04-28T22:11:25.924Z,13.31
2023-04-28T22:16:47.993Z,13.23
2023-04-28T22:22:09.876Z,13.16
2023-04-28T22:27:31.982Z,13.14
2023-04-28T22:32:54.003Z,13.15
2023-04-28T22:38:16.432Z,13.08
2023-04-28T22:43:38.155Z,13.15
2023-04-28T22:49:00.387Z,13.12
2023-04-28T22:54:22.573Z,13.11
2023-04-28T22:59:44.693Z,13.21
2023-04-28T23:05:09.825Z,13.23
2023-04-28T23:10:31.588Z,13.24
2023-04-28T23:15:53.849Z,13.11
2023-04-28T23:21:15.289Z,12.96
2023-04-28T23:26:37.936Z,12.91
2023-04-28T23:31:59.954Z,12.89
2023-04-28T23:37:22.214Z,12.91
2023-04-28T23:42:44.000Z,12.85
2023-04-28T23:48:06.274Z,12.84
2023-04-28T23:53:28.507Z,12.86
2023-04-28T23:58:50.591Z,12.85
